Turnerville, Alabama
Current Conditions -  °F | °C
As of 6:56 PM on Monday 22 Dec 2014 (Local Time) from KMOB Reporting Station
Scattered Clouds Scattered Clouds  
Wind Chill: 66°   Ceiling: Unl
Heat Index: 66°   Visibility: 10mi
Dew Point: 65°   Wind: 9mph
Humidity: 96%   Direction: 190°S
Pressure: 29.77"   Gusts: NA
Location:  30.9846°N, 88.1229°W
Report Text: KMOB 230056Z 19008KT 10SM FEW009 SCT024 SCT040 19/18 A2977 RMK AO2 SLP078 T01890183
Loading
Personal Weather Stations






























Interactive Weather Map New forecast layout! Learn more

10-Day Weather Forecast

Advertisements
Track Severe Weather on mobile